createdAt,value
2023-09-23T00:01:15.112Z,12.64
2023-09-23T00:03:47.250Z,12.64
2023-09-23T00:06:22.121Z,12.66
2023-09-23T00:08:53.641Z,12.65
2023-09-23T00:11:26.327Z,12.61
2023-09-23T00:13:58.181Z,12.59
2023-09-23T00:16:30.232Z,12.56
2023-09-23T00:19:03.160Z,12.53
2023-09-23T00:21:34.801Z,12.52
2023-09-23T00:24:08.056Z,12.50
2023-09-23T00:26:39.685Z,12.50
2023-09-23T00:29:11.796Z,12.49
2023-09-23T00:31:44.807Z,12.49
2023-09-23T00:34:17.205Z,12.50
2023-09-23T00:36:49.078Z,12.52
2023-09-23T00:39:20.648Z,12.53
2023-09-23T00:41:53.212Z,12.55
2023-09-23T00:44:25.773Z,12.54
2023-09-23T00:46:57.438Z,12.54
2023-09-23T00:49:28.941Z,12.54
2023-09-23T00:52:01.187Z,12.55
2023-09-23T00:54:33.496Z,12.53
2023-09-23T00:57:07.674Z,12.52
2023-09-23T00:59:41.462Z,12.53
2023-09-23T01:02:15.421Z,12.53
2023-09-23T01:04:47.250Z,12.53
2023-09-23T01:07:19.638Z,12.51
2023-09-23T01:09:51.620Z,12.49
2023-09-23T01:12:23.550Z,12.46
2023-09-23T01:14:59.569Z,12.46
2023-09-23T01:17:31.537Z,12.46
2023-09-23T01:20:03.672Z,12.44
2023-09-23T01:22:36.325Z,12.43
2023-09-23T01:25:09.578Z,12.43
2023-09-23T01:27:41.983Z,12.44
2023-09-23T01:30:14.436Z,12.45
2023-09-23T01:32:51.768Z,12.45
2023-09-23T01:35:24.043Z,12.43
2023-09-23T01:37:55.977Z,12.41
2023-09-23T01:40:30.410Z,12.41
2023-09-23T01:43:03.204Z,12.41
2023-09-23T01:45:34.792Z,12.40
2023-09-23T01:48:07.018Z,12.39
2023-09-23T01:50:38.613Z,12.38
2023-09-23T01:53:10.576Z,12.36
2023-09-23T01:55:42.300Z,12.33
2023-09-23T01:58:15.420Z,12.30
2023-09-23T02:00:46.934Z,12.27
2023-09-23T02:03:18.531Z,12.24
2023-09-23T02:05:51.152Z,12.23
2023-09-23T02:08:22.897Z,12.23
2023-09-23T02:10:54.542Z,12.21
2023-09-23T02:13:26.155Z,12.20
2023-09-23T02:15:58.807Z,12.18
2023-09-23T02:18:30.428Z,12.16
2023-09-23T02:21:01.881Z,12.13
2023-09-23T02:23:33.580Z,12.10
2023-09-23T02:26:05.113Z,12.09
2023-09-23T02:28:36.743Z,12.07
2023-09-23T02:31:08.947Z,12.08
2023-09-23T02:33:40.560Z,12.09
2023-09-23T02:36:15.739Z,12.09
2023-09-23T02:38:48.041Z,12.09
2023-09-23T02:41:19.802Z,12.09
2023-09-23T02:43:54.150Z,12.08
2023-09-23T02:46:25.736Z,12.05
2023-09-23T02:48:57.609Z,12.03
2023-09-23T02:51:29.477Z,12.03
2023-09-23T02:54:01.170Z,12.01
2023-09-23T02:56:32.693Z,11.99
2023-09-23T02:59:12.383Z,11.97
2023-09-23T03:01:49.737Z,11.95
2023-09-23T03:04:24.746Z,11.95
2023-09-23T03:07:00.916Z,11.95
2023-09-23T03:09:33.755Z,11.95
2023-09-23T03:12:05.675Z,11.97
2023-09-23T03:14:39.947Z,11.98
2023-09-23T03:17:14.403Z,11.97
2023-09-23T03:19:46.269Z,11.96
2023-09-23T03:22:21.203Z,11.94
2023-09-23T03:24:53.352Z,11.91
2023-09-23T03:27:29.513Z,11.88
2023-09-23T03:30:04.757Z,11.84
2023-09-23T03:32:36.640Z,11.82
2023-09-23T03:35:15.356Z,11.81
2023-09-23T03:37:50.532Z,11.81
2023-09-23T03:40:26.093Z,11.81
2023-09-23T03:42:58.687Z,11.79
2023-09-23T03:45:34.693Z,11.80
2023-09-23T03:48:07.483Z,11.82
2023-09-23T03:50:39.213Z,11.85
2023-09-23T03:53:12.049Z,11.88
2023-09-23T03:55:43.715Z,11.90
2023-09-23T03:58:15.300Z,11.91
2023-09-23T04:00:47.115Z,11.92
2023-09-23T04:03:19.744Z,11.92
2023-09-23T04:05:59.574Z,11.90
2023-09-23T04:08:31.612Z,11.86
2023-09-23T04:11:06.378Z,11.86
2023-09-23T04:13:37.989Z,11.87
2023-09-23T04:16:10.647Z,11.88
2023-09-23T04:18:43.069Z,11.89
2023-09-23T04:21:14.897Z,11.90
2023-09-23T04:23:46.488Z,11.89
2023-09-23T04:26:22.720Z,11.89
2023-09-23T04:28:54.600Z,11.88
2023-09-23T04:31:26.177Z,11.88
2023-09-23T04:33:57.776Z,11.87
2023-09-23T04:36:29.418Z,11.87
2023-09-23T04:39:01.049Z,11.86
2023-09-23T04:41:32.567Z,11.87
2023-09-23T04:44:04.186Z,11.87
2023-09-23T04:46:35.838Z,11.86
2023-09-23T04:49:07.515Z,11.84
2023-09-23T04:51:39.648Z,11.82
2023-09-23T04:54:11.287Z,11.81
2023-09-23T04:56:43.606Z,11.77
2023-09-23T04:59:15.060Z,11.75
2023-09-23T05:01:47.620Z,11.75
2023-09-23T05:04:19.861Z,11.73
2023-09-23T05:06:51.978Z,11.72
2023-09-23T05:09:24.868Z,11.70
2023-09-23T05:11:56.627Z,11.69
2023-09-23T05:14:28.255Z,11.67
2023-09-23T05:17:00.642Z,11.64
2023-09-23T05:19:32.564Z,11.59
2023-09-23T05:22:04.894Z,11.58
2023-09-23T05:24:36.380Z,11.57
2023-09-23T05:27:08.318Z,11.55
2023-09-23T05:29:40.020Z,11.51
2023-09-23T05:32:12.084Z,11.49
2023-09-23T05:34:44.574Z,11.47
2023-09-23T05:37:16.267Z,11.48
2023-09-23T05:39:47.837Z,11.47
2023-09-23T05:42:24.662Z,11.46
2023-09-23T05:44:56.619Z,11.44
2023-09-23T05:47:28.434Z,11.44
2023-09-23T05:50:00.343Z,11.42
2023-09-23T05:52:33.313Z,11.41
2023-09-23T05:55:05.294Z,11.40
2023-09-23T05:57:39.254Z,11.40
2023-09-23T06:00:18.666Z,11.40
2023-09-23T06:02:50.382Z,11.41
2023-09-23T06:05:23.667Z,11.44
2023-09-23T06:07:56.380Z,11.44
2023-09-23T06:10:28.040Z,11.44
2023-09-23T06:12:59.636Z,11.43
2023-09-23T06:15:33.305Z,11.43
2023-09-23T06:18:05.156Z,11.46
2023-09-23T06:20:37.021Z,11.48
2023-09-23T06:23:09.106Z,11.51
2023-09-23T06:25:40.797Z,11.55
2023-09-23T06:28:12.423Z,11.56
2023-09-23T06:30:46.167Z,11.60
2023-09-23T06:33:18.029Z,11.60
2023-09-23T06:35:50.798Z,11.59
2023-09-23T06:38:22.425Z,11.61
2023-09-23T06:40:59.621Z,11.67
2023-09-23T06:43:30.072Z,11.71
2023-09-23T06:46:02.710Z,11.75
2023-09-23T06:48:34.868Z,11.76
2023-09-23T06:51:06.866Z,11.77
2023-09-23T06:53:39.051Z,11.79
2023-09-23T06:56:10.581Z,11.79
2023-09-23T06:58:43.058Z,11.79
2023-09-23T07:01:14.638Z,11.82
2023-09-23T07:03:47.560Z,11.85
2023-09-23T07:06:19.510Z,11.87
2023-09-23T07:08:51.655Z,11.93
2023-09-23T07:11:24.754Z,11.98
2023-09-23T07:13:57.036Z,12.02
2023-09-23T07:16:28.634Z,12.06
2023-09-23T07:19:00.432Z,12.10
2023-09-23T07:21:32.350Z,12.16
2023-09-23T07:24:05.681Z,12.22
2023-09-23T07:26:39.347Z,12.29
2023-09-23T07:29:10.941Z,12.34
2023-09-23T07:31:42.596Z,12.38
2023-09-23T07:34:15.020Z,12.42
2023-09-23T07:36:46.799Z,12.46
2023-09-23T07:39:19.087Z,12.49
2023-09-23T07:41:51.300Z,12.51
2023-09-23T07:44:22.937Z,12.54
2023-09-23T07:46:54.583Z,12.59
2023-09-23T07:49:26.167Z,12.66
2023-09-23T07:51:59.753Z,12.72
2023-09-23T07:54:31.199Z,12.76
2023-09-23T07:57:02.744Z,12.81
2023-09-23T07:59:34.758Z,12.85
2023-09-23T08:02:06.446Z,12.90
2023-09-23T08:04:38.267Z,12.95
2023-09-23T08:07:09.948Z,13.00
2023-09-23T08:09:41.704Z,13.03
2023-09-23T08:12:13.299Z,13.07
2023-09-23T08:14:44.751Z,13.12
2023-09-23T08:17:17.187Z,13.18
2023-09-23T08:19:48.879Z,13.22
2023-09-23T08:22:21.437Z,13.25
2023-09-23T08:24:52.951Z,13.28
2023-09-23T08:27:24.522Z,13.33
2023-09-23T08:29:57.584Z,13.37
2023-09-23T08:32:29.290Z,13.40
2023-09-23T08:35:00.861Z,13.42
2023-09-23T08:37:32.511Z,13.47
2023-09-23T08:40:07.931Z,13.45
2023-09-23T08:42:40.161Z,13.43
2023-09-23T08:45:12.757Z,13.48
2023-09-23T08:47:45.170Z,13.48
2023-09-23T08:50:17.996Z,13.47
2023-09-23T08:52:49.924Z,13.46
2023-09-23T08:55:24.133Z,13.48
2023-09-23T08:57:56.420Z,13.52
2023-09-23T09:00:30.974Z,13.54
2023-09-23T09:03:02.538Z,13.58
2023-09-23T09:05:44.506Z,13.64
2023-09-23T09:08:17.521Z,13.72
2023-09-23T09:10:49.321Z,13.78
2023-09-23T09:13:21.356Z,13.87
2023-09-23T09:15:55.742Z,13.93
2023-09-23T09:18:27.366Z,14.02
2023-09-23T09:20:59.110Z,14.11
2023-09-23T09:23:34.059Z,14.24
2023-09-23T09:26:05.896Z,14.36
2023-09-23T09:28:37.543Z,14.46
2023-09-23T09:31:12.239Z,14.51
2023-09-23T09:33:48.649Z,14.52
2023-09-23T09:36:24.761Z,14.51
2023-09-23T09:38:59.366Z,14.58
2023-09-23T09:41:39.448Z,14.68
2023-09-23T09:44:12.322Z,14.82
2023-09-23T09:46:44.735Z,14.91
2023-09-23T09:49:17.546Z,14.98
2023-09-23T09:51:51.060Z,15.03
2023-09-23T09:54:26.533Z,15.05
2023-09-23T09:57:00.193Z,15.06
2023-09-23T09:59:34.576Z,15.04
2023-09-23T10:02:08.066Z,15.01
2023-09-23T10:04:39.856Z,15.02
2023-09-23T10:07:11.331Z,15.03
2023-09-23T10:09:55.223Z,15.01
2023-09-23T10:12:32.525Z,14.93
2023-09-23T10:15:05.033Z,14.83
2023-09-23T10:17:39.000Z,14.79
2023-09-23T10:20:19.595Z,14.79
2023-09-23T10:22:55.064Z,14.80
2023-09-23T10:25:38.047Z,14.83
2023-09-23T10:28:19.874Z,14.82
2023-09-23T10:31:00.843Z,14.81
2023-09-23T10:33:35.625Z,14.80
2023-09-23T10:36:09.403Z,14.77
2023-09-23T10:38:40.933Z,14.75
2023-09-23T10:41:13.002Z,14.75
2023-09-23T10:43:44.659Z,14.78
2023-09-23T10:46:17.471Z,14.80
2023-09-23T10:48:49.449Z,14.84
2023-09-23T10:51:21.192Z,14.89
2023-09-23T10:53:52.925Z,14.94
2023-09-23T10:56:26.395Z,14.95
2023-09-23T10:58:58.144Z,14.96
2023-09-23T11:01:30.602Z,14.94
2023-09-23T11:04:02.598Z,14.91
2023-09-23T11:06:34.434Z,14.95
2023-09-23T11:09:06.968Z,14.98
2023-09-23T11:11:39.007Z,15.03
2023-09-23T11:14:15.806Z,15.11
2023-09-23T11:16:47.877Z,15.21
2023-09-23T11:19:19.650Z,15.29
2023-09-23T11:21:51.918Z,15.36
2023-09-23T11:24:23.521Z,15.41
2023-09-23T11:26:55.080Z,15.44
2023-09-23T11:29:27.820Z,15.42
2023-09-23T11:32:00.366Z,15.35
2023-09-23T11:34:32.629Z,15.33
2023-09-23T11:37:04.212Z,15.34
2023-09-23T11:39:36.699Z,15.36
2023-09-23T11:42:08.487Z,15.37
2023-09-23T11:44:40.270Z,15.40
2023-09-23T11:47:12.344Z,15.46
2023-09-23T11:49:44.259Z,15.60
2023-09-23T11:52:15.772Z,15.74
2023-09-23T11:54:47.498Z,15.81
2023-09-23T11:57:19.368Z,15.80
2023-09-23T11:59:50.917Z,15.74
2023-09-23T12:02:23.566Z,15.64
2023-09-23T12:04:55.635Z,15.52
2023-09-23T12:07:27.635Z,15.42
2023-09-23T12:09:59.807Z,15.36
2023-09-23T12:12:31.380Z,15.30
2023-09-23T12:15:03.811Z,15.23
2023-09-23T12:17:35.719Z,15.19
2023-09-23T12:20:12.545Z,15.15
2023-09-23T12:22:46.049Z,15.10
2023-09-23T12:25:18.668Z,15.12
2023-09-23T12:27:50.248Z,15.20
2023-09-23T12:30:21.922Z,15.29
2023-09-23T12:32:53.454Z,15.35
2023-09-23T12:35:25.066Z,15.42
2023-09-23T12:37:57.501Z,15.48
2023-09-23T12:40:29.033Z,15.51
2023-09-23T12:43:00.539Z,15.57
2023-09-23T12:45:32.147Z,15.63
2023-09-23T12:48:03.768Z,15.67
2023-09-23T12:50:35.536Z,15.70
2023-09-23T12:53:07.511Z,15.75
2023-09-23T12:55:39.040Z,15.79
2023-09-23T12:58:10.529Z,15.85
2023-09-23T13:00:42.786Z,15.88
2023-09-23T13:03:15.527Z,15.91
2023-09-23T13:05:47.363Z,15.92
2023-09-23T13:08:21.199Z,15.95
2023-09-23T13:10:52.890Z,15.95
2023-09-23T13:13:24.466Z,15.95
2023-09-23T13:15:56.079Z,15.93
2023-09-23T13:18:27.615Z,15.92
2023-09-23T13:20:59.875Z,15.94
2023-09-23T13:23:33.164Z,15.97
2023-09-23T13:26:04.964Z,15.97
2023-09-23T13:28:38.390Z,15.97
2023-09-23T13:31:10.256Z,15.94
2023-09-23T13:33:41.923Z,15.92
2023-09-23T13:36:13.549Z,15.93
2023-09-23T13:38:45.191Z,15.96
2023-09-23T13:41:16.951Z,15.98
2023-09-23T13:43:48.601Z,16.01
2023-09-23T13:46:20.453Z,16.02
2023-09-23T13:48:52.162Z,16.06
2023-09-23T13:51:23.744Z,16.10
2023-09-23T13:53:55.224Z,16.12
2023-09-23T13:56:26.867Z,16.13
2023-09-23T13:58:58.434Z,16.11
2023-09-23T14:01:31.121Z,16.09
2023-09-23T14:04:02.540Z,16.07
2023-09-23T14:06:34.103Z,16.05
2023-09-23T14:09:05.645Z,16.06
2023-09-23T14:11:37.309Z,16.06
2023-09-23T14:14:09.179Z,16.04
2023-09-23T14:16:40.774Z,16.04
2023-09-23T14:19:12.354Z,16.04
2023-09-23T14:21:44.163Z,16.01
2023-09-23T14:24:15.783Z,15.98
2023-09-23T14:26:47.384Z,15.93
2023-09-23T14:29:19.144Z,15.87
2023-09-23T14:31:51.781Z,15.83
2023-09-23T14:34:23.608Z,15.79
2023-09-23T14:36:55.266Z,15.77
2023-09-23T14:39:26.793Z,15.73
2023-09-23T14:41:58.262Z,15.69
2023-09-23T14:44:29.779Z,15.67
2023-09-23T14:47:01.413Z,15.67
2023-09-23T14:49:33.511Z,15.68
2023-09-23T14:52:05.097Z,15.70
2023-09-23T14:54:36.598Z,15.74
2023-09-23T14:57:08.194Z,15.84
2023-09-23T14:59:40.085Z,15.99
2023-09-23T15:02:11.872Z,16.16
2023-09-23T15:04:43.522Z,16.32
2023-09-23T15:07:16.958Z,16.48
2023-09-23T15:09:52.059Z,16.60
2023-09-23T15:12:23.821Z,16.71
2023-09-23T15:14:55.215Z,16.86
2023-09-23T15:17:26.864Z,17.00
2023-09-23T15:19:58.369Z,17.08
2023-09-23T15:22:30.508Z,17.12
2023-09-23T15:25:01.989Z,17.10
2023-09-23T15:27:33.580Z,17.09
2023-09-23T15:30:08.350Z,17.07
2023-09-23T15:32:41.069Z,17.03
2023-09-23T15:35:12.898Z,16.98
2023-09-23T15:37:44.428Z,16.93
2023-09-23T15:40:17.894Z,16.83
2023-09-23T15:42:50.115Z,16.75
2023-09-23T15:45:21.610Z,16.69
2023-09-23T15:47:53.255Z,16.62
2023-09-23T15:50:27.569Z,16.56
2023-09-23T15:52:59.361Z,16.52
2023-09-23T15:55:30.854Z,16.47
2023-09-23T15:58:02.375Z,16.44
2023-09-23T16:00:34.296Z,16.41
2023-09-23T16:03:06.390Z,16.37
2023-09-23T16:05:38.465Z,16.31
2023-09-23T16:08:10.250Z,16.27
2023-09-23T16:10:41.934Z,16.20
2023-09-23T16:13:14.636Z,16.12
2023-09-23T16:15:47.141Z,16.17
2023-09-23T16:18:21.642Z,16.25
2023-09-23T16:20:54.819Z,16.27
2023-09-23T16:23:26.398Z,16.29
2023-09-23T16:25:57.916Z,16.28
2023-09-23T16:28:29.674Z,16.26
2023-09-23T16:31:02.287Z,16.24
2023-09-23T16:33:33.851Z,16.21
2023-09-23T16:36:05.938Z,16.19
2023-09-23T16:38:37.890Z,16.15
2023-09-23T16:41:09.352Z,16.11
2023-09-23T16:43:41.078Z,16.05
2023-09-23T16:46:12.874Z,15.98
2023-09-23T16:48:44.543Z,15.92
2023-09-23T16:51:16.584Z,15.84
2023-09-23T16:53:48.904Z,15.77
2023-09-23T16:56:21.754Z,15.73
2023-09-23T16:58:53.481Z,15.69
2023-09-23T17:01:25.779Z,15.66
2023-09-23T17:03:57.429Z,15.63
2023-09-23T17:06:29.092Z,15.58
2023-09-23T17:09:01.183Z,15.48
2023-09-23T17:11:33.059Z,15.37
2023-09-23T17:14:04.804Z,15.29
2023-09-23T17:16:36.394Z,15.20
2023-09-23T17:19:08.371Z,15.15
2023-09-23T17:21:39.895Z,15.11
2023-09-23T17:24:12.025Z,15.07
2023-09-23T17:26:43.648Z,15.04
2023-09-23T17:29:15.307Z,15.00
2023-09-23T17:31:47.719Z,14.96
2023-09-23T17:34:19.428Z,14.90
2023-09-23T17:36:51.607Z,14.86
2023-09-23T17:39:23.743Z,14.81
2023-09-23T17:41:55.301Z,14.75
2023-09-23T17:44:27.200Z,14.68
2023-09-23T17:46:58.708Z,14.63
2023-09-23T17:49:30.589Z,14.58
2023-09-23T17:52:02.491Z,14.51
2023-09-23T17:54:34.038Z,14.45
2023-09-23T17:57:05.628Z,14.38
2023-09-23T17:59:38.199Z,14.33
2023-09-23T18:02:10.693Z,14.27
2023-09-23T18:04:43.922Z,14.22
2023-09-23T18:07:15.491Z,14.18
2023-09-23T18:09:46.989Z,14.12
2023-09-23T18:12:18.459Z,14.04
2023-09-23T18:14:50.438Z,13.97
2023-09-23T18:17:22.147Z,13.90
2023-09-23T18:19:54.139Z,13.82
2023-09-23T18:22:25.693Z,13.74
2023-09-23T18:24:58.526Z,13.66
2023-09-23T18:27:31.056Z,13.58
2023-09-23T18:30:03.018Z,13.53
2023-09-23T18:32:34.621Z,13.46
2023-09-23T18:35:07.358Z,13.37
2023-09-23T18:37:39.113Z,13.30
2023-09-23T18:40:12.281Z,13.25
2023-09-23T18:42:44.176Z,13.20
2023-09-23T18:45:16.217Z,13.17
2023-09-23T18:47:47.755Z,13.13
2023-09-23T18:50:19.906Z,13.09
2023-09-23T18:52:52.466Z,13.04
2023-09-23T18:55:24.754Z,12.97
2023-09-23T18:57:57.443Z,12.93
2023-09-23T19:00:29.915Z,12.88
2023-09-23T19:03:03.171Z,12.84
2023-09-23T19:05:36.160Z,12.80
2023-09-23T19:08:08.978Z,12.76
2023-09-23T19:10:41.027Z,12.72
2023-09-23T19:13:12.684Z,12.70
2023-09-23T19:15:50.906Z,12.66
2023-09-23T19:18:22.726Z,12.62
2023-09-23T19:20:54.407Z,12.58
2023-09-23T19:23:28.377Z,12.53
2023-09-23T19:26:02.214Z,12.50
2023-09-23T19:28:33.840Z,12.47
2023-09-23T19:31:05.598Z,12.45
2023-09-23T19:33:37.185Z,12.43
2023-09-23T19:36:09.526Z,12.41
2023-09-23T19:38:41.272Z,12.39
2023-09-23T19:41:12.989Z,12.37
2023-09-23T19:43:44.770Z,12.33
2023-09-23T19:46:16.442Z,12.32
2023-09-23T19:48:48.498Z,12.30
2023-09-23T19:51:26.930Z,12.29
2023-09-23T19:53:58.574Z,12.28
2023-09-23T19:56:30.231Z,12.26
2023-09-23T19:59:02.349Z,12.25
2023-09-23T20:01:35.528Z,12.25
2023-09-23T20:04:07.916Z,12.26
2023-09-23T20:06:40.407Z,12.28
2023-09-23T20:09:12.782Z,12.30
2023-09-23T20:11:45.336Z,12.32
2023-09-23T20:14:18.678Z,12.34
2023-09-23T20:16:50.842Z,12.36
2023-09-23T20:19:23.702Z,12.39
2023-09-23T20:21:55.336Z,12.41
2023-09-23T20:24:26.924Z,12.43
2023-09-23T20:26:59.857Z,12.45
2023-09-23T20:29:31.615Z,12.45
2023-09-23T20:32:03.272Z,12.47
2023-09-23T20:34:35.034Z,12.49
2023-09-23T20:37:08.324Z,12.52
2023-09-23T20:39:40.005Z,12.54
2023-09-23T20:42:12.931Z,12.57
2023-09-23T20:44:44.756Z,12.59
2023-09-23T20:47:16.333Z,12.58
2023-09-23T20:49:47.946Z,12.60
2023-09-23T20:52:20.057Z,12.61
2023-09-23T20:54:53.495Z,12.63
2023-09-23T20:57:25.358Z,12.63
2023-09-23T20:59:57.007Z,12.62
2023-09-23T21:02:29.539Z,12.62
2023-09-23T21:05:05.265Z,12.62
2023-09-23T21:07:37.863Z,12.63
2023-09-23T21:10:12.648Z,12.61
2023-09-23T21:12:44.254Z,12.58
2023-09-23T21:15:18.077Z,12.54
2023-09-23T21:17:49.861Z,12.51
2023-09-23T21:20:22.162Z,12.49
2023-09-23T21:22:54.786Z,12.47
2023-09-23T21:25:26.826Z,12.46
2023-09-23T21:27:58.827Z,12.43
2023-09-23T21:30:30.816Z,12.42
2023-09-23T21:33:02.544Z,12.40
2023-09-23T21:35:34.263Z,12.37
2023-09-23T21:38:06.073Z,12.36
2023-09-23T21:40:44.635Z,12.34
2023-09-23T21:43:16.738Z,12.34
2023-09-23T21:45:48.677Z,12.32
2023-09-23T21:48:20.541Z,12.30
2023-09-23T21:50:59.218Z,12.29
2023-09-23T21:53:31.567Z,12.24
2023-09-23T21:56:03.504Z,12.21
2023-09-23T21:58:35.133Z,12.20
2023-09-23T22:01:08.574Z,12.20
2023-09-23T22:03:40.774Z,12.22
2023-09-23T22:06:13.135Z,12.22
2023-09-23T22:08:45.807Z,12.22
2023-09-23T22:11:18.955Z,12.18
2023-09-23T22:13:50.550Z,12.17
2023-09-23T22:16:22.160Z,12.15
2023-09-23T22:18:53.870Z,12.14
2023-09-23T22:21:27.411Z,12.11
2023-09-23T22:23:59.166Z,12.09
2023-09-23T22:26:30.879Z,12.06
2023-09-23T22:29:04.183Z,12.05
2023-09-23T22:31:36.236Z,12.04
2023-09-23T22:34:08.152Z,12.02
2023-09-23T22:36:39.743Z,12.01
2023-09-23T22:39:13.785Z,12.02
2023-09-23T22:41:46.316Z,12.01
2023-09-23T22:44:17.897Z,11.96
2023-09-23T22:46:49.553Z,11.90
2023-09-23T22:49:22.617Z,11.86
2023-09-23T22:51:55.696Z,11.82
2023-09-23T22:54:27.259Z,11.79
2023-09-23T22:56:58.928Z,11.76
2023-09-23T22:59:30.669Z,11.72
2023-09-23T23:02:02.354Z,11.69
2023-09-23T23:04:34.128Z,11.66
2023-09-23T23:07:05.811Z,11.65
2023-09-23T23:09:37.489Z,11.64
2023-09-23T23:12:10.818Z,11.61
2023-09-23T23:14:42.463Z,11.59
2023-09-23T23:17:14.663Z,11.57
2023-09-23T23:19:46.635Z,11.55
2023-09-23T23:22:18.263Z,11.53
2023-09-23T23:24:50.005Z,11.51
2023-09-23T23:27:21.700Z,11.48
2023-09-23T23:29:55.041Z,11.46
2023-09-23T23:32:27.072Z,11.43
2023-09-23T23:34:58.945Z,11.42
2023-09-23T23:37:33.053Z,11.38
2023-09-23T23:40:05.951Z,11.35
2023-09-23T23:42:39.083Z,11.32
2023-09-23T23:45:12.492Z,11.29
2023-09-23T23:47:44.149Z,11.29
2023-09-23T23:50:17.618Z,11.26
2023-09-23T23:52:50.514Z,11.24
2023-09-23T23:55:22.388Z,11.22
2023-09-23T23:57:53.858Z,11.18
